sensor_id;sensor_type;location;lat;lon;timestamp;P1;durP1;ratioP1;P2;durP2;ratioP2
77055;SDS011;67471;44.918;8.614;2023-04-27T00:00:10;4.63;;;2.53;;
77055;SDS011;67471;44.918;8.614;2023-04-27T00:03:14;5.13;;;2.53;;
77055;SDS011;67471;44.918;8.614;2023-04-27T00:06:18;6.43;;;2.55;;
77055;SDS011;67471;44.918;8.614;2023-04-27T00:09:22;6.10;;;2.35;;
77055;SDS011;67471;44.918;8.614;2023-04-27T00:12:25;5.38;;;2.72;;
77055;SDS011;67471;44.918;8.614;2023-04-27T00:15:29;5.07;;;2.13;;
77055;SDS011;67471;44.918;8.614;2023-04-27T00:18:33;4.55;;;2.80;;
77055;SDS011;67471;44.918;8.614;2023-04-27T00:21:37;7.32;;;2.70;;
77055;SDS011;67471;44.918;8.614;2023-04-27T00:24:41;7.18;;;2.80;;
77055;SDS011;67471;44.918;8.614;2023-04-27T00:27:45;4.20;;;2.35;;
77055;SDS011;67471;44.918;8.614;2023-04-27T00:30:49;9.90;;;2.50;;
77055;SDS011;67471;44.918;8.614;2023-04-27T00:33:52;4.75;;;2.70;;
77055;SDS011;67471;44.918;8.614;2023-04-27T00:36:56;3.92;;;2.15;;
77055;SDS011;67471;44.918;8.614;2023-04-27T00:39:59;5.97;;;2.60;;
77055;SDS011;67471;44.918;8.614;2023-04-27T00:43:03;4.50;;;2.03;;
77055;SDS011;67471;44.918;8.614;2023-04-27T00:46:08;8.52;;;2.13;;
77055;SDS011;67471;44.918;8.614;2023-04-27T00:49:13;2.80;;;1.65;;
77055;SDS011;67471;44.918;8.614;2023-04-27T00:52:17;10.15;;;2.55;;
77055;SDS011;67471;44.918;8.614;2023-04-27T00:55:21;6.28;;;2.30;;
77055;SDS011;67471;44.918;8.614;2023-04-27T00:58:26;4.75;;;2.33;;
77055;SDS011;67471;44.918;8.614;2023-04-27T01:01:30;3.55;;;2.08;;
77055;SDS011;67471;44.918;8.614;2023-04-27T01:04:34;6.50;;;2.40;;
77055;SDS011;67471;44.918;8.614;2023-04-27T01:07:39;4.55;;;1.90;;
77055;SDS011;67471;44.918;8.614;2023-04-27T01:10:43;5.15;;;2.00;;
77055;SDS011;67471;44.918;8.614;2023-04-27T01:13:47;7.05;;;1.98;;
77055;SDS011;67471;44.918;8.614;2023-04-27T01:16:51;6.93;;;2.40;;
77055;SDS011;67471;44.918;8.614;2023-04-27T01:19:55;5.70;;;2.38;;
77055;SDS011;67471;44.918;8.614;2023-04-27T01:22:58;5.93;;;2.08;;
77055;SDS011;67471;44.918;8.614;2023-04-27T01:26:02;4.80;;;2.50;;
77055;SDS011;67471;44.918;8.614;2023-04-27T01:29:06;4.70;;;2.22;;
77055;SDS011;67471;44.918;8.614;2023-04-27T01:32:10;6.20;;;2.63;;
77055;SDS011;67471;44.918;8.614;2023-04-27T01:35:15;14.10;;;7.15;;
77055;SDS011;67471;44.918;8.614;2023-04-27T01:38:19;10.80;;;5.13;;
77055;SDS011;67471;44.918;8.614;2023-04-27T01:41:22;7.35;;;2.50;;
77055;SDS011;67471;44.918;8.614;2023-04-27T01:44:26;4.40;;;2.50;;
77055;SDS011;67471;44.918;8.614;2023-04-27T01:47:31;10.13;;;3.00;;
77055;SDS011;67471;44.918;8.614;2023-04-27T01:50:34;7.22;;;2.95;;
77055;SDS011;67471;44.918;8.614;2023-04-27T01:53:40;6.30;;;2.95;;
77055;SDS011;67471;44.918;8.614;2023-04-27T01:56:45;5.88;;;2.80;;
77055;SDS011;67471;44.918;8.614;2023-04-27T01:59:49;4.70;;;2.80;;
77055;SDS011;67471;44.918;8.614;2023-04-27T02:02:53;6.80;;;2.90;;
77055;SDS011;67471;44.918;8.614;2023-04-27T02:05:59;6.60;;;2.78;;
77055;SDS011;67471;44.918;8.614;2023-04-27T02:09:03;5.38;;;2.80;;
77055;SDS011;67471;44.918;8.614;2023-04-27T02:12:07;6.97;;;2.80;;
77055;SDS011;67471;44.918;8.614;2023-04-27T02:15:12;8.02;;;2.60;;
77055;SDS011;67471;44.918;8.614;2023-04-27T02:18:15;5.40;;;3.20;;
77055;SDS011;67471;44.918;8.614;2023-04-27T02:21:19;7.20;;;2.88;;
77055;SDS011;67471;44.918;8.614;2023-04-27T02:24:23;7.20;;;3.05;;
77055;SDS011;67471;44.918;8.614;2023-04-27T02:27:27;3.83;;;2.42;;
77055;SDS011;67471;44.918;8.614;2023-04-27T02:30:31;7.53;;;2.60;;
77055;SDS011;67471;44.918;8.614;2023-04-27T02:33:35;7.03;;;2.83;;
77055;SDS011;67471;44.918;8.614;2023-04-27T02:36:39;7.30;;;2.78;;
77055;SDS011;67471;44.918;8.614;2023-04-27T02:39:43;4.05;;;2.38;;
77055;SDS011;67471;44.918;8.614;2023-04-27T02:42:46;6.95;;;2.78;;
77055;SDS011;67471;44.918;8.614;2023-04-27T02:45:50;5.65;;;2.65;;
77055;SDS011;67471;44.918;8.614;2023-04-27T02:48:54;7.68;;;2.75;;
77055;SDS011;67471;44.918;8.614;2023-04-27T02:52:00;5.68;;;2.95;;
77055;SDS011;67471;44.918;8.614;2023-04-27T02:55:04;6.18;;;3.55;;
77055;SDS011;67471;44.918;8.614;2023-04-27T02:58:08;5.47;;;3.00;;
77055;SDS011;67471;44.918;8.614;2023-04-27T03:01:13;8.05;;;3.08;;
77055;SDS011;67471;44.918;8.614;2023-04-27T03:04:19;6.93;;;3.10;;
77055;SDS011;67471;44.918;8.614;2023-04-27T03:07:23;6.07;;;3.13;;
77055;SDS011;67471;44.918;8.614;2023-04-27T03:10:26;6.22;;;3.20;;
77055;SDS011;67471;44.918;8.614;2023-04-27T03:13:30;5.53;;;2.97;;
77055;SDS011;67471;44.918;8.614;2023-04-27T03:16:40;7.18;;;2.95;;
77055;SDS011;67471;44.918;8.614;2023-04-27T03:19:45;4.72;;;2.80;;
77055;SDS011;67471;44.918;8.614;2023-04-27T03:22:51;6.90;;;3.00;;
77055;SDS011;67471;44.918;8.614;2023-04-27T03:25:55;5.90;;;3.00;;
77055;SDS011;67471;44.918;8.614;2023-04-27T03:29:00;7.30;;;3.38;;
77055;SDS011;67471;44.918;8.614;2023-04-27T03:32:05;9.45;;;2.70;;
77055;SDS011;67471;44.918;8.614;2023-04-27T03:35:09;5.07;;;2.70;;
77055;SDS011;67471;44.918;8.614;2023-04-27T03:38:13;4.70;;;2.50;;
77055;SDS011;67471;44.918;8.614;2023-04-27T03:41:16;5.63;;;2.90;;
77055;SDS011;67471;44.918;8.614;2023-04-27T03:44:20;5.65;;;2.50;;
77055;SDS011;67471;44.918;8.614;2023-04-27T03:47:24;5.05;;;2.97;;
77055;SDS011;67471;44.918;8.614;2023-04-27T03:50:29;6.75;;;2.95;;
77055;SDS011;67471;44.918;8.614;2023-04-27T03:53:32;8.10;;;2.85;;
77055;SDS011;67471;44.918;8.614;2023-04-27T03:56:36;9.30;;;2.90;;
77055;SDS011;67471;44.918;8.614;2023-04-27T03:59:41;6.63;;;2.90;;
77055;SDS011;67471;44.918;8.614;2023-04-27T04:02:44;5.07;;;2.85;;
77055;SDS011;67471;44.918;8.614;2023-04-27T04:05:48;7.90;;;3.20;;
77055;SDS011;67471;44.918;8.614;2023-04-27T04:08:52;8.35;;;3.58;;
77055;SDS011;67471;44.918;8.614;2023-04-27T04:11:56;9.30;;;3.83;;
77055;SDS011;67471;44.918;8.614;2023-04-27T04:15:01;8.68;;;3.03;;
77055;SDS011;67471;44.918;8.614;2023-04-27T04:18:06;7.53;;;3.55;;
77055;SDS011;67471;44.918;8.614;2023-04-27T04:21:10;7.40;;;3.47;;
77055;SDS011;67471;44.918;8.614;2023-04-27T04:24:14;6.75;;;3.58;;
77055;SDS011;67471;44.918;8.614;2023-04-27T04:27:18;6.97;;;4.38;;
77055;SDS011;67471;44.918;8.614;2023-04-27T04:30:22;5.35;;;3.28;;
77055;SDS011;67471;44.918;8.614;2023-04-27T04:33:26;9.98;;;3.72;;
77055;SDS011;67471;44.918;8.614;2023-04-27T04:36:30;5.55;;;3.13;;
77055;SDS011;67471;44.918;8.614;2023-04-27T04:39:34;7.75;;;3.40;;
77055;SDS011;67471;44.918;8.614;2023-04-27T04:42:39;6.65;;;3.78;;
77055;SDS011;67471;44.918;8.614;2023-04-27T04:45:45;5.97;;;3.25;;
77055;SDS011;67471;44.918;8.614;2023-04-27T04:48:49;10.32;;;4.25;;
77055;SDS011;67471;44.918;8.614;2023-04-27T04:51:53;10.65;;;3.80;;
77055;SDS011;67471;44.918;8.614;2023-04-27T04:54:57;9.35;;;3.58;;
77055;SDS011;67471;44.918;8.614;2023-04-27T04:58:01;11.88;;;3.70;;
77055;SDS011;67471;44.918;8.614;2023-04-27T05:01:05;8.25;;;3.92;;
77055;SDS011;67471;44.918;8.614;2023-04-27T05:04:08;8.25;;;3.80;;
77055;SDS011;67471;44.918;8.614;2023-04-27T05:07:12;6.82;;;3.50;;
77055;SDS011;67471;44.918;8.614;2023-04-27T05:10:16;7.13;;;3.80;;
77055;SDS011;67471;44.918;8.614;2023-04-27T05:13:20;7.45;;;3.83;;
77055;SDS011;67471;44.918;8.614;2023-04-27T05:16:24;5.75;;;3.67;;
77055;SDS011;67471;44.918;8.614;2023-04-27T05:19:28;6.55;;;4.60;;
77055;SDS011;67471;44.918;8.614;2023-04-27T05:22:33;9.18;;;4.13;;
77055;SDS011;67471;44.918;8.614;2023-04-27T05:25:37;8.10;;;3.97;;
77055;SDS011;67471;44.918;8.614;2023-04-27T05:28:44;7.07;;;4.35;;
77055;SDS011;67471;44.918;8.614;2023-04-27T05:31:49;8.88;;;4.45;;
77055;SDS011;67471;44.918;8.614;2023-04-27T05:34:53;9.48;;;4.07;;
77055;SDS011;67471;44.918;8.614;2023-04-27T05:37:57;8.05;;;4.45;;
77055;SDS011;67471;44.918;8.614;2023-04-27T05:41:01;9.15;;;4.13;;
77055;SDS011;67471;44.918;8.614;2023-04-27T05:44:05;7.03;;;3.97;;
77055;SDS011;67471;44.918;8.614;2023-04-27T05:47:08;6.47;;;3.70;;
77055;SDS011;67471;44.918;8.614;2023-04-27T05:50:12;11.85;;;4.03;;
77055;SDS011;67471;44.918;8.614;2023-04-27T05:53:16;8.63;;;4.28;;
77055;SDS011;67471;44.918;8.614;2023-04-27T05:56:20;7.93;;;4.40;;
77055;SDS011;67471;44.918;8.614;2023-04-27T05:59:24;14.95;;;4.60;;
77055;SDS011;67471;44.918;8.614;2023-04-27T06:02:29;8.85;;;4.60;;
77055;SDS011;67471;44.918;8.614;2023-04-27T06:05:33;8.75;;;4.97;;
77055;SDS011;67471;44.918;8.614;2023-04-27T06:08:37;10.43;;;5.80;;
77055;SDS011;67471;44.918;8.614;2023-04-27T06:11:41;6.55;;;4.05;;
77055;SDS011;67471;44.918;8.614;2023-04-27T06:14:45;8.20;;;4.15;;
77055;SDS011;67471;44.918;8.614;2023-04-27T06:17:49;12.98;;;3.80;;
77055;SDS011;67471;44.918;8.614;2023-04-27T06:20:57;6.85;;;4.30;;
77055;SDS011;67471;44.918;8.614;2023-04-27T06:24:02;8.10;;;4.22;;
77055;SDS011;67471;44.918;8.614;2023-04-27T06:27:05;8.02;;;4.18;;
77055;SDS011;67471;44.918;8.614;2023-04-27T06:30:10;7.50;;;3.88;;
77055;SDS011;67471;44.918;8.614;2023-04-27T06:33:14;7.93;;;4.05;;
77055;SDS011;67471;44.918;8.614;2023-04-27T06:36:17;9.70;;;3.83;;
77055;SDS011;67471;44.918;8.614;2023-04-27T06:39:21;8.25;;;4.45;;
77055;SDS011;67471;44.918;8.614;2023-04-27T06:42:25;6.30;;;3.75;;
77055;SDS011;67471;44.918;8.614;2023-04-27T06:45:30;9.50;;;3.97;;
77055;SDS011;67471;44.918;8.614;2023-04-27T06:48:34;6.00;;;3.78;;
77055;SDS011;67471;44.918;8.614;2023-04-27T06:51:37;11.95;;;4.35;;
77055;SDS011;67471;44.918;8.614;2023-04-27T06:54:41;9.50;;;4.10;;
77055;SDS011;67471;44.918;8.614;2023-04-27T06:58:03;7.93;;;3.80;;
77055;SDS011;67471;44.918;8.614;2023-04-27T07:01:07;9.52;;;3.58;;
77055;SDS011;67471;44.918;8.614;2023-04-27T07:04:11;6.85;;;3.60;;
77055;SDS011;67471;44.918;8.614;2023-04-27T07:07:15;9.13;;;4.03;;
77055;SDS011;67471;44.918;8.614;2023-04-27T07:10:19;8.75;;;4.35;;
77055;SDS011;67471;44.918;8.614;2023-04-27T07:13:23;5.22;;;3.33;;
77055;SDS011;67471;44.918;8.614;2023-04-27T07:16:27;7.80;;;3.90;;
77055;SDS011;67471;44.918;8.614;2023-04-27T07:19:31;8.05;;;4.32;;
77055;SDS011;67471;44.918;8.614;2023-04-27T07:22:35;8.55;;;3.50;;
77055;SDS011;67471;44.918;8.614;2023-04-27T07:25:39;5.65;;;4.00;;
77055;SDS011;67471;44.918;8.614;2023-04-27T07:28:43;9.25;;;4.68;;
77055;SDS011;67471;44.918;8.614;2023-04-27T07:31:47;6.93;;;3.88;;
77055;SDS011;67471;44.918;8.614;2023-04-27T07:34:51;9.77;;;3.75;;
77055;SDS011;67471;44.918;8.614;2023-04-27T07:37:55;7.63;;;3.83;;
77055;SDS011;67471;44.918;8.614;2023-04-27T07:41:00;8.52;;;5.15;;
77055;SDS011;67471;44.918;8.614;2023-04-27T07:44:05;8.70;;;5.10;;
77055;SDS011;67471;44.918;8.614;2023-04-27T07:47:09;6.10;;;3.70;;
77055;SDS011;67471;44.918;8.614;2023-04-27T07:50:13;6.72;;;3.30;;
77055;SDS011;67471;44.918;8.614;2023-04-27T07:53:18;11.60;;;4.40;;
77055;SDS011;67471;44.918;8.614;2023-04-27T07:56:23;4.75;;;3.83;;
77055;SDS011;67471;44.918;8.614;2023-04-27T07:59:29;9.30;;;4.15;;
77055;SDS011;67471;44.918;8.614;2023-04-27T08:02:33;8.88;;;3.83;;
77055;SDS011;67471;44.918;8.614;2023-04-27T08:05:37;6.30;;;3.80;;
77055;SDS011;67471;44.918;8.614;2023-04-27T08:08:41;11.52;;;5.05;;
77055;SDS011;67471;44.918;8.614;2023-04-27T08:11:45;8.38;;;3.78;;
77055;SDS011;67471;44.918;8.614;2023-04-27T08:14:49;9.98;;;4.88;;
77055;SDS011;67471;44.918;8.614;2023-04-27T08:17:53;9.88;;;5.07;;
77055;SDS011;67471;44.918;8.614;2023-04-27T08:20:57;10.85;;;5.57;;
77055;SDS011;67471;44.918;8.614;2023-04-27T08:24:01;9.88;;;5.50;;
77055;SDS011;67471;44.918;8.614;2023-04-27T08:27:06;7.53;;;5.82;;
77055;SDS011;67471;44.918;8.614;2023-04-27T08:30:11;13.43;;;6.30;;
77055;SDS011;67471;44.918;8.614;2023-04-27T08:33:15;11.93;;;6.07;;
77055;SDS011;67471;44.918;8.614;2023-04-27T08:36:22;9.30;;;6.13;;
77055;SDS011;67471;44.918;8.614;2023-04-27T08:39:30;12.70;;;8.15;;
77055;SDS011;67471;44.918;8.614;2023-04-27T08:42:34;12.75;;;9.38;;
77055;SDS011;67471;44.918;8.614;2023-04-27T08:45:37;15.23;;;10.68;;
77055;SDS011;67471;44.918;8.614;2023-04-27T08:48:46;15.95;;;9.55;;
77055;SDS011;67471;44.918;8.614;2023-04-27T08:51:52;18.40;;;9.73;;
77055;SDS011;67471;44.918;8.614;2023-04-27T08:54:56;19.33;;;10.38;;
77055;SDS011;67471;44.918;8.614;2023-04-27T08:57:59;18.52;;;12.80;;
77055;SDS011;67471;44.918;8.614;2023-04-27T09:01:04;19.23;;;11.75;;
77055;SDS011;67471;44.918;8.614;2023-04-27T09:04:11;16.42;;;11.38;;
77055;SDS011;67471;44.918;8.614;2023-04-27T09:07:16;14.43;;;10.55;;
77055;SDS011;67471;44.918;8.614;2023-04-27T09:10:20;15.98;;;11.52;;
77055;SDS011;67471;44.918;8.614;2023-04-27T09:13:33;17.75;;;11.05;;
77055;SDS011;67471;44.918;8.614;2023-04-27T09:16:37;16.05;;;10.93;;
77055;SDS011;67471;44.918;8.614;2023-04-27T09:19:41;14.75;;;11.07;;
77055;SDS011;67471;44.918;8.614;2023-04-27T09:22:45;25.48;;;16.58;;
77055;SDS011;67471;44.918;8.614;2023-04-27T09:25:55;25.23;;;14.98;;
77055;SDS011;67471;44.918;8.614;2023-04-27T09:28:59;38.72;;;27.25;;
77055;SDS011;67471;44.918;8.614;2023-04-27T09:32:13;19.48;;;15.30;;
77055;SDS011;67471;44.918;8.614;2023-04-27T09:38:27;19.92;;;11.80;;
77055;SDS011;67471;44.918;8.614;2023-04-27T09:41:31;17.05;;;11.80;;
77055;SDS011;67471;44.918;8.614;2023-04-27T09:44:35;16.08;;;12.07;;
77055;SDS011;67471;44.918;8.614;2023-04-27T09:47:39;15.70;;;10.82;;
77055;SDS011;67471;44.918;8.614;2023-04-27T09:50:43;18.90;;;11.82;;
77055;SDS011;67471;44.918;8.614;2023-04-27T09:53:49;17.10;;;12.05;;
77055;SDS011;67471;44.918;8.614;2023-04-27T10:07:18;14.60;;;9.52;;
77055;SDS011;67471;44.918;8.614;2023-04-27T10:10:16;15.38;;;10.20;;
77055;SDS011;67471;44.918;8.614;2023-04-27T10:13:22;16.75;;;9.35;;
77055;SDS011;67471;44.918;8.614;2023-04-27T10:16:27;12.25;;;7.80;;
77055;SDS011;67471;44.918;8.614;2023-04-27T10:19:53;16.40;;;9.55;;
77055;SDS011;67471;44.918;8.614;2023-04-27T10:22:58;15.70;;;8.38;;
77055;SDS011;67471;44.918;8.614;2023-04-27T10:26:06;13.70;;;7.75;;
77055;SDS011;67471;44.918;8.614;2023-04-27T10:29:10;13.20;;;9.20;;
77055;SDS011;67471;44.918;8.614;2023-04-27T10:35:33;13.82;;;9.75;;
77055;SDS011;67471;44.918;8.614;2023-04-27T10:38:38;13.45;;;9.43;;
77055;SDS011;67471;44.918;8.614;2023-04-27T10:41:49;14.88;;;9.55;;
77055;SDS011;67471;44.918;8.614;2023-04-27T10:44:55;13.38;;;8.95;;
77055;SDS011;67471;44.918;8.614;2023-04-27T10:47:59;15.38;;;9.32;;
77055;SDS011;67471;44.918;8.614;2023-04-27T10:51:04;14.23;;;8.57;;
77055;SDS011;67471;44.918;8.614;2023-04-27T10:54:08;14.73;;;9.85;;
77055;SDS011;67471;44.918;8.614;2023-04-27T10:57:12;17.80;;;9.15;;
77055;SDS011;67471;44.918;8.614;2023-04-27T11:03:40;12.32;;;8.95;;
77055;SDS011;67471;44.918;8.614;2023-04-27T11:09:52;12.23;;;8.65;;
77055;SDS011;67471;44.918;8.614;2023-04-27T11:12:57;13.00;;;7.97;;
77055;SDS011;67471;44.918;8.614;2023-04-27T11:16:03;13.48;;;8.18;;
77055;SDS011;67471;44.918;8.614;2023-04-27T11:19:07;14.07;;;8.73;;
77055;SDS011;67471;44.918;8.614;2023-04-27T11:22:11;13.80;;;8.57;;
77055;SDS011;67471;44.918;8.614;2023-04-27T11:25:26;18.70;;;8.30;;
77055;SDS011;67471;44.918;8.614;2023-04-27T11:28:33;13.65;;;7.55;;
77055;SDS011;67471;44.918;8.614;2023-04-27T11:31:40;13.27;;;7.65;;
77055;SDS011;67471;44.918;8.614;2023-04-27T11:34:50;12.70;;;7.28;;
77055;SDS011;67471;44.918;8.614;2023-04-27T11:37:57;15.27;;;7.63;;
77055;SDS011;67471;44.918;8.614;2023-04-27T11:41:05;14.90;;;7.78;;
77055;SDS011;67471;44.918;8.614;2023-04-27T11:44:09;13.73;;;8.23;;
77055;SDS011;67471;44.918;8.614;2023-04-27T11:47:16;13.75;;;8.38;;
77055;SDS011;67471;44.918;8.614;2023-04-27T11:50:24;18.88;;;8.05;;
77055;SDS011;67471;44.918;8.614;2023-04-27T11:53:29;14.65;;;8.10;;
77055;SDS011;67471;44.918;8.614;2023-04-27T11:56:38;14.32;;;7.57;;
77055;SDS011;67471;44.918;8.614;2023-04-27T11:59:44;13.75;;;7.50;;
77055;SDS011;67471;44.918;8.614;2023-04-27T12:02:48;14.32;;;7.70;;
77055;SDS011;67471;44.918;8.614;2023-04-27T12:05:52;13.63;;;7.57;;
77055;SDS011;67471;44.918;8.614;2023-04-27T12:08:56;13.15;;;8.05;;
77055;SDS011;67471;44.918;8.614;2023-04-27T12:12:00;14.18;;;8.27;;
77055;SDS011;67471;44.918;8.614;2023-04-27T12:15:05;14.30;;;8.02;;
77055;SDS011;67471;44.918;8.614;2023-04-27T12:18:10;17.90;;;8.43;;
77055;SDS011;67471;44.918;8.614;2023-04-27T12:21:14;13.27;;;7.28;;
77055;SDS011;67471;44.918;8.614;2023-04-27T12:24:19;16.02;;;7.60;;
77055;SDS011;67471;44.918;8.614;2023-04-27T12:27:22;11.95;;;7.63;;
77055;SDS011;67471;44.918;8.614;2023-04-27T12:30:26;15.70;;;7.70;;
77055;SDS011;67471;44.918;8.614;2023-04-27T12:33:30;13.75;;;6.75;;
77055;SDS011;67471;44.918;8.614;2023-04-27T12:36:34;14.70;;;7.15;;
77055;SDS011;67471;44.918;8.614;2023-04-27T12:39:38;13.70;;;6.50;;
77055;SDS011;67471;44.918;8.614;2023-04-27T12:42:42;13.27;;;6.20;;
77055;SDS011;67471;44.918;8.614;2023-04-27T12:45:46;11.45;;;5.72;;
77055;SDS011;67471;44.918;8.614;2023-04-27T12:48:49;11.10;;;5.57;;
77055;SDS011;67471;44.918;8.614;2023-04-27T12:51:53;13.10;;;6.30;;
77055;SDS011;67471;44.918;8.614;2023-04-27T12:54:59;9.85;;;4.90;;
77055;SDS011;67471;44.918;8.614;2023-04-27T12:58:03;10.20;;;4.72;;
77055;SDS011;67471;44.918;8.614;2023-04-27T13:01:07;8.27;;;4.13;;
77055;SDS011;67471;44.918;8.614;2023-04-27T13:04:17;10.50;;;4.70;;
77055;SDS011;67471;44.918;8.614;2023-04-27T13:07:22;7.45;;;4.18;;
77055;SDS011;67471;44.918;8.614;2023-04-27T13:10:26;10.52;;;4.47;;
77055;SDS011;67471;44.918;8.614;2023-04-27T13:13:31;10.27;;;4.80;;
77055;SDS011;67471;44.918;8.614;2023-04-27T13:16:34;10.10;;;4.07;;
77055;SDS011;67471;44.918;8.614;2023-04-27T13:19:38;10.63;;;4.40;;
77055;SDS011;67471;44.918;8.614;2023-04-27T13:22:42;10.52;;;4.07;;
77055;SDS011;67471;44.918;8.614;2023-04-27T13:25:46;11.75;;;4.18;;
77055;SDS011;67471;44.918;8.614;2023-04-27T13:28:50;11.80;;;4.20;;
77055;SDS011;67471;44.918;8.614;2023-04-27T13:31:54;9.07;;;4.28;;
77055;SDS011;67471;44.918;8.614;2023-04-27T13:34:58;10.63;;;4.18;;
77055;SDS011;67471;44.918;8.614;2023-04-27T13:38:02;8.75;;;4.22;;
77055;SDS011;67471;44.918;8.614;2023-04-27T13:41:06;10.18;;;4.32;;
77055;SDS011;67471;44.918;8.614;2023-04-27T13:44:10;6.40;;;3.63;;
77055;SDS011;67471;44.918;8.614;2023-04-27T13:47:14;7.75;;;3.63;;
77055;SDS011;67471;44.918;8.614;2023-04-27T13:50:18;8.30;;;3.55;;
77055;SDS011;67471;44.918;8.614;2023-04-27T13:53:22;12.02;;;4.90;;
77055;SDS011;67471;44.918;8.614;2023-04-27T13:56:27;9.32;;;3.97;;
77055;SDS011;67471;44.918;8.614;2023-04-27T13:59:31;8.23;;;3.85;;
77055;SDS011;67471;44.918;8.614;2023-04-27T14:02:35;10.30;;;4.30;;
77055;SDS011;67471;44.918;8.614;2023-04-27T14:05:39;9.15;;;3.88;;
77055;SDS011;67471;44.918;8.614;2023-04-27T14:08:43;9.35;;;3.92;;
77055;SDS011;67471;44.918;8.614;2023-04-27T14:11:47;8.98;;;3.65;;
77055;SDS011;67471;44.918;8.614;2023-04-27T14:14:51;8.02;;;3.97;;
77055;SDS011;67471;44.918;8.614;2023-04-27T14:17:54;8.63;;;3.40;;
77055;SDS011;67471;44.918;8.614;2023-04-27T14:20:58;7.82;;;3.97;;
77055;SDS011;67471;44.918;8.614;2023-04-27T14:24:02;5.43;;;2.85;;
77055;SDS011;67471;44.918;8.614;2023-04-27T14:27:06;7.13;;;2.70;;
77055;SDS011;67471;44.918;8.614;2023-04-27T14:30:10;11.60;;;3.90;;
77055;SDS011;67471;44.918;8.614;2023-04-27T14:33:14;7.85;;;4.20;;
77055;SDS011;67471;44.918;8.614;2023-04-27T14:36:18;7.00;;;3.30;;
77055;SDS011;67471;44.918;8.614;2023-04-27T14:39:22;10.40;;;3.75;;
77055;SDS011;67471;44.918;8.614;2023-04-27T14:42:25;6.43;;;3.67;;
77055;SDS011;67471;44.918;8.614;2023-04-27T14:45:29;8.25;;;2.92;;
77055;SDS011;67471;44.918;8.614;2023-04-27T14:48:33;7.93;;;3.58;;
77055;SDS011;67471;44.918;8.614;2023-04-27T14:51:37;8.10;;;3.70;;
77055;SDS011;67471;44.918;8.614;2023-04-27T14:54:41;7.35;;;2.97;;
77055;SDS011;67471;44.918;8.614;2023-04-27T14:57:45;6.45;;;3.03;;
77055;SDS011;67471;44.918;8.614;2023-04-27T15:00:49;6.53;;;2.97;;
77055;SDS011;67471;44.918;8.614;2023-04-27T15:03:54;6.55;;;3.50;;
77055;SDS011;67471;44.918;8.614;2023-04-27T15:06:58;6.38;;;2.80;;
77055;SDS011;67471;44.918;8.614;2023-04-27T15:10:02;11.88;;;3.63;;
77055;SDS011;67471;44.918;8.614;2023-04-27T15:13:06;8.10;;;3.65;;
77055;SDS011;67471;44.918;8.614;2023-04-27T15:16:10;9.82;;;4.13;;
77055;SDS011;67471;44.918;8.614;2023-04-27T15:19:14;9.52;;;4.20;;
77055;SDS011;67471;44.918;8.614;2023-04-27T15:22:18;7.88;;;3.63;;
77055;SDS011;67471;44.918;8.614;2023-04-27T15:25:22;7.93;;;4.00;;
77055;SDS011;67471;44.918;8.614;2023-04-27T15:28:26;8.20;;;4.03;;
77055;SDS011;67471;44.918;8.614;2023-04-27T15:31:30;9.23;;;4.03;;
77055;SDS011;67471;44.918;8.614;2023-04-27T15:34:33;9.75;;;3.63;;
77055;SDS011;67471;44.918;8.614;2023-04-27T15:37:37;8.20;;;4.63;;
77055;SDS011;67471;44.918;8.614;2023-04-27T15:40:41;10.82;;;4.50;;
77055;SDS011;67471;44.918;8.614;2023-04-27T15:43:45;11.95;;;4.38;;
77055;SDS011;67471;44.918;8.614;2023-04-27T15:46:49;10.02;;;4.65;;
77055;SDS011;67471;44.918;8.614;2023-04-27T15:49:53;8.88;;;3.60;;
77055;SDS011;67471;44.918;8.614;2023-04-27T15:52:57;8.32;;;4.45;;
77055;SDS011;67471;44.918;8.614;2023-04-27T15:56:01;7.82;;;3.70;;
77055;SDS011;67471;44.918;8.614;2023-04-27T15:59:05;8.35;;;4.65;;
77055;SDS011;67471;44.918;8.614;2023-04-27T16:02:11;10.68;;;4.30;;
77055;SDS011;67471;44.918;8.614;2023-04-27T16:05:15;10.82;;;4.93;;
77055;SDS011;67471;44.918;8.614;2023-04-27T16:08:19;11.18;;;5.20;;
77055;SDS011;67471;44.918;8.614;2023-04-27T16:11:23;10.02;;;4.53;;
77055;SDS011;67471;44.918;8.614;2023-04-27T16:14:27;8.10;;;3.92;;
77055;SDS011;67471;44.918;8.614;2023-04-27T16:17:31;8.80;;;4.45;;
77055;SDS011;67471;44.918;8.614;2023-04-27T16:20:35;8.57;;;4.88;;
77055;SDS011;67471;44.918;8.614;2023-04-27T16:23:39;9.55;;;4.88;;
77055;SDS011;67471;44.918;8.614;2023-04-27T16:26:43;10.10;;;4.40;;
77055;SDS011;67471;44.918;8.614;2023-04-27T16:29:51;10.05;;;4.88;;
77055;SDS011;67471;44.918;8.614;2023-04-27T16:32:54;9.77;;;5.30;;
77055;SDS011;67471;44.918;8.614;2023-04-27T16:35:58;10.65;;;4.13;;
77055;SDS011;67471;44.918;8.614;2023-04-27T16:39:02;12.35;;;4.35;;
77055;SDS011;67471;44.918;8.614;2023-04-27T16:42:07;13.40;;;4.60;;
77055;SDS011;67471;44.918;8.614;2023-04-27T16:45:11;10.50;;;4.38;;
77055;SDS011;67471;44.918;8.614;2023-04-27T16:48:15;11.25;;;4.18;;
77055;SDS011;67471;44.918;8.614;2023-04-27T16:51:19;8.10;;;3.60;;
77055;SDS011;67471;44.918;8.614;2023-04-27T16:54:23;9.00;;;3.92;;
77055;SDS011;67471;44.918;8.614;2023-04-27T16:57:27;6.93;;;3.75;;
77055;SDS011;67471;44.918;8.614;2023-04-27T17:00:31;6.85;;;3.38;;
77055;SDS011;67471;44.918;8.614;2023-04-27T17:03:34;8.07;;;3.13;;
77055;SDS011;67471;44.918;8.614;2023-04-27T17:06:38;7.15;;;2.28;;
77055;SDS011;67471;44.918;8.614;2023-04-27T17:09:43;10.13;;;2.08;;
77055;SDS011;67471;44.918;8.614;2023-04-27T17:12:46;3.20;;;1.42;;
77055;SDS011;67471;44.918;8.614;2023-04-27T17:15:50;4.63;;;1.70;;
77055;SDS011;67471;44.918;8.614;2023-04-27T17:18:54;4.93;;;1.42;;
77055;SDS011;67471;44.918;8.614;2023-04-27T17:21:58;5.40;;;1.40;;
77055;SDS011;67471;44.918;8.614;2023-04-27T17:25:02;5.88;;;1.95;;
77055;SDS011;67471;44.918;8.614;2023-04-27T17:28:06;6.55;;;1.50;;
77055;SDS011;67471;44.918;8.614;2023-04-27T17:31:10;5.72;;;1.88;;
77055;SDS011;67471;44.918;8.614;2023-04-27T17:34:14;4.20;;;1.75;;
77055;SDS011;67471;44.918;8.614;2023-04-27T17:37:17;5.60;;;1.77;;
77055;SDS011;67471;44.918;8.614;2023-04-27T17:40:21;4.68;;;1.60;;
77055;SDS011;67471;44.918;8.614;2023-04-27T17:43:25;7.18;;;1.52;;
77055;SDS011;67471;44.918;8.614;2023-04-27T17:46:29;4.15;;;1.80;;
77055;SDS011;67471;44.918;8.614;2023-04-27T17:49:33;4.45;;;1.60;;
77055;SDS011;67471;44.918;8.614;2023-04-27T17:52:37;5.13;;;2.83;;
77055;SDS011;67471;44.918;8.614;2023-04-27T17:55:41;4.90;;;1.65;;
77055;SDS011;67471;44.918;8.614;2023-04-27T17:58:47;6.78;;;2.10;;
77055;SDS011;67471;44.918;8.614;2023-04-27T18:01:51;4.47;;;1.58;;
77055;SDS011;67471;44.918;8.614;2023-04-27T18:04:55;5.70;;;2.25;;
77055;SDS011;67471;44.918;8.614;2023-04-27T18:07:59;10.82;;;1.98;;
77055;SDS011;67471;44.918;8.614;2023-04-27T18:11:03;5.63;;;1.63;;
77055;SDS011;67471;44.918;8.614;2023-04-27T18:14:07;4.50;;;1.80;;
77055;SDS011;67471;44.918;8.614;2023-04-27T18:17:11;5.57;;;1.77;;
77055;SDS011;67471;44.918;8.614;2023-04-27T18:20:14;3.90;;;1.92;;
77055;SDS011;67471;44.918;8.614;2023-04-27T18:23:19;3.67;;;1.83;;
77055;SDS011;67471;44.918;8.614;2023-04-27T18:26:23;6.43;;;2.10;;
77055;SDS011;67471;44.918;8.614;2023-04-27T18:29:27;6.13;;;2.20;;
77055;SDS011;67471;44.918;8.614;2023-04-27T18:32:32;6.32;;;2.15;;
77055;SDS011;67471;44.918;8.614;2023-04-27T18:35:36;8.90;;;2.00;;
77055;SDS011;67471;44.918;8.614;2023-04-27T18:38:40;5.70;;;2.42;;
77055;SDS011;67471;44.918;8.614;2023-04-27T18:41:44;5.65;;;2.05;;
77055;SDS011;67471;44.918;8.614;2023-04-27T18:44:48;5.95;;;2.20;;
77055;SDS011;67471;44.918;8.614;2023-04-27T18:47:51;5.95;;;2.05;;